sensor_id;sensor_type;location;lat;lon;timestamp;P1;durP1;ratioP1;P2;durP2;ratioP2
17864;SDS011;9058;52.018;4.202;2022-12-08T00:01:37;2.00;;;0.60;;
17864;SDS011;9058;52.018;4.202;2022-12-08T00:04:04;2.03;;;0.68;;
17864;SDS011;9058;52.018;4.202;2022-12-08T00:06:31;2.55;;;0.80;;
17864;SDS011;9058;52.018;4.202;2022-12-08T00:09:16;3.63;;;0.75;;
17864;SDS011;9058;52.018;4.202;2022-12-08T00:11:50;3.40;;;0.60;;
17864;SDS011;9058;52.018;4.202;2022-12-08T00:14:16;2.40;;;0.83;;
17864;SDS011;9058;52.018;4.202;2022-12-08T00:16:42;4.37;;;0.53;;
17864;SDS011;9058;52.018;4.202;2022-12-08T00:19:11;2.83;;;1.00;;
17864;SDS011;9058;52.018;4.202;2022-12-08T00:21:37;4.07;;;0.82;;
17864;SDS011;9058;52.018;4.202;2022-12-08T00:24:04;6.80;;;0.80;;
17864;SDS011;9058;52.018;4.202;2022-12-08T00:26:30;4.17;;;1.10;;
17864;SDS011;9058;52.018;4.202;2022-12-08T00:28:57;3.42;;;0.70;;
17864;SDS011;9058;52.018;4.202;2022-12-08T00:31:23;6.25;;;0.88;;
17864;SDS011;9058;52.018;4.202;2022-12-08T00:33:49;4.75;;;0.90;;
17864;SDS011;9058;52.018;4.202;2022-12-08T00:36:18;4.50;;;0.70;;
17864;SDS011;9058;52.018;4.202;2022-12-08T00:38:44;5.85;;;0.73;;
17864;SDS011;9058;52.018;4.202;2022-12-08T00:41:13;4.75;;;0.63;;
17864;SDS011;9058;52.018;4.202;2022-12-08T00:43:39;4.65;;;0.70;;
17864;SDS011;9058;52.018;4.202;2022-12-08T00:46:05;4.22;;;0.70;;
17864;SDS011;9058;52.018;4.202;2022-12-08T00:48:32;9.88;;;1.05;;
17864;SDS011;9058;52.018;4.202;2022-12-08T00:50:58;6.30;;;1.00;;
17864;SDS011;9058;52.018;4.202;2022-12-08T00:53:26;1.73;;;0.75;;
17864;SDS011;9058;52.018;4.202;2022-12-08T00:55:52;1.90;;;0.50;;
17864;SDS011;9058;52.018;4.202;2022-12-08T00:58:19;1.42;;;0.60;;
17864;SDS011;9058;52.018;4.202;2022-12-08T01:00:45;4.32;;;0.85;;
17864;SDS011;9058;52.018;4.202;2022-12-08T01:03:12;2.40;;;0.70;;
17864;SDS011;9058;52.018;4.202;2022-12-08T01:05:39;3.25;;;0.60;;
17864;SDS011;9058;52.018;4.202;2022-12-08T01:08:05;8.25;;;1.55;;
17864;SDS011;9058;52.018;4.202;2022-12-08T01:10:34;4.97;;;1.10;;
17864;SDS011;9058;52.018;4.202;2022-12-08T01:13:01;6.30;;;0.77;;
17864;SDS011;9058;52.018;4.202;2022-12-08T01:15:27;1.80;;;0.50;;
17864;SDS011;9058;52.018;4.202;2022-12-08T01:17:54;1.83;;;0.60;;
17864;SDS011;9058;52.018;4.202;2022-12-08T01:20:20;3.05;;;0.70;;
17864;SDS011;9058;52.018;4.202;2022-12-08T01:22:46;2.92;;;0.75;;
17864;SDS011;9058;52.018;4.202;2022-12-08T01:25:13;3.30;;;0.50;;
17864;SDS011;9058;52.018;4.202;2022-12-08T01:27:41;3.72;;;0.55;;
17864;SDS011;9058;52.018;4.202;2022-12-08T01:30:07;3.67;;;0.60;;
17864;SDS011;9058;52.018;4.202;2022-12-08T01:32:34;4.65;;;1.02;;
17864;SDS011;9058;52.018;4.202;2022-12-08T01:35:00;7.53;;;1.25;;
17864;SDS011;9058;52.018;4.202;2022-12-08T01:37:28;2.50;;;0.77;;
17864;SDS011;9058;52.018;4.202;2022-12-08T01:39:54;2.58;;;1.00;;
17864;SDS011;9058;52.018;4.202;2022-12-08T01:42:21;4.28;;;1.20;;
17864;SDS011;9058;52.018;4.202;2022-12-08T01:44:53;4.70;;;0.68;;
17864;SDS011;9058;52.018;4.202;2022-12-08T01:47:21;4.87;;;0.97;;
17864;SDS011;9058;52.018;4.202;2022-12-08T01:49:47;8.93;;;0.97;;
17864;SDS011;9058;52.018;4.202;2022-12-08T01:52:15;3.83;;;1.27;;
17864;SDS011;9058;52.018;4.202;2022-12-08T01:54:45;3.60;;;0.68;;
17864;SDS011;9058;52.018;4.202;2022-12-08T01:57:14;7.90;;;0.80;;
17864;SDS011;9058;52.018;4.202;2022-12-08T01:59:43;2.17;;;0.80;;
17864;SDS011;9058;52.018;4.202;2022-12-08T02:02:12;1.88;;;0.73;;
17864;SDS011;9058;52.018;4.202;2022-12-08T02:04:38;6.85;;;0.82;;
17864;SDS011;9058;52.018;4.202;2022-12-08T02:07:05;4.95;;;0.80;;
17864;SDS011;9058;52.018;4.202;2022-12-08T02:09:33;4.80;;;0.90;;
17864;SDS011;9058;52.018;4.202;2022-12-08T02:12:00;3.43;;;0.87;;
17864;SDS011;9058;52.018;4.202;2022-12-08T02:14:26;5.35;;;1.17;;
17864;SDS011;9058;52.018;4.202;2022-12-08T02:16:54;6.25;;;0.73;;
17864;SDS011;9058;52.018;4.202;2022-12-08T02:19:31;4.20;;;0.60;;
17864;SDS011;9058;52.018;4.202;2022-12-08T02:22:02;3.00;;;0.80;;
17864;SDS011;9058;52.018;4.202;2022-12-08T02:24:31;4.83;;;0.60;;
17864;SDS011;9058;52.018;4.202;2022-12-08T02:27:11;1.43;;;0.90;;
17864;SDS011;9058;52.018;4.202;2022-12-08T02:29:48;1.80;;;0.60;;
17864;SDS011;9058;52.018;4.202;2022-12-08T02:32:31;5.32;;;1.10;;
17864;SDS011;9058;52.018;4.202;2022-12-08T02:35:07;3.80;;;1.30;;
17864;SDS011;9058;52.018;4.202;2022-12-08T02:37:36;5.72;;;1.10;;
17864;SDS011;9058;52.018;4.202;2022-12-08T02:40:05;4.03;;;0.87;;
17864;SDS011;9058;52.018;4.202;2022-12-08T02:42:36;2.90;;;0.87;;
17864;SDS011;9058;52.018;4.202;2022-12-08T02:45:05;6.03;;;1.10;;
17864;SDS011;9058;52.018;4.202;2022-12-08T02:47:33;9.00;;;0.90;;
17864;SDS011;9058;52.018;4.202;2022-12-08T02:50:01;8.45;;;1.30;;
17864;SDS011;9058;52.018;4.202;2022-12-08T02:52:39;5.63;;;1.13;;
17864;SDS011;9058;52.018;4.202;2022-12-08T02:55:07;5.93;;;2.05;;
17864;SDS011;9058;52.018;4.202;2022-12-08T02:57:36;6.32;;;1.63;;
17864;SDS011;9058;52.018;4.202;2022-12-08T03:00:08;4.23;;;1.17;;
17864;SDS011;9058;52.018;4.202;2022-12-08T03:02:39;3.55;;;1.05;;
17864;SDS011;9058;52.018;4.202;2022-12-08T03:05:08;3.72;;;1.00;;
17864;SDS011;9058;52.018;4.202;2022-12-08T03:07:39;5.07;;;1.00;;
17864;SDS011;9058;52.018;4.202;2022-12-08T03:10:09;2.60;;;0.60;;
17864;SDS011;9058;52.018;4.202;2022-12-08T03:12:38;4.45;;;1.90;;
17864;SDS011;9058;52.018;4.202;2022-12-08T03:15:08;6.78;;;1.08;;
17864;SDS011;9058;52.018;4.202;2022-12-08T03:17:39;5.75;;;1.50;;
17864;SDS011;9058;52.018;4.202;2022-12-08T03:20:08;4.63;;;0.93;;
17864;SDS011;9058;52.018;4.202;2022-12-08T03:22:35;4.90;;;0.95;;
17864;SDS011;9058;52.018;4.202;2022-12-08T03:25:03;6.10;;;1.08;;
17864;SDS011;9058;52.018;4.202;2022-12-08T03:27:31;3.95;;;1.00;;
17864;SDS011;9058;52.018;4.202;2022-12-08T03:29:58;3.15;;;0.70;;
17864;SDS011;9058;52.018;4.202;2022-12-08T03:32:27;1.83;;;0.70;;
17864;SDS011;9058;52.018;4.202;2022-12-08T03:34:55;2.80;;;0.60;;
17864;SDS011;9058;52.018;4.202;2022-12-08T03:37:24;3.20;;;0.90;;
17864;SDS011;9058;52.018;4.202;2022-12-08T03:39:51;6.90;;;0.73;;
17864;SDS011;9058;52.018;4.202;2022-12-08T03:42:18;4.93;;;1.33;;
17864;SDS011;9058;52.018;4.202;2022-12-08T03:44:45;8.25;;;1.60;;
17864;SDS011;9058;52.018;4.202;2022-12-08T03:47:12;5.35;;;0.80;;
17864;SDS011;9058;52.018;4.202;2022-12-08T03:49:38;4.13;;;0.80;;
17864;SDS011;9058;52.018;4.202;2022-12-08T03:52:05;7.25;;;1.20;;
17864;SDS011;9058;52.018;4.202;2022-12-08T03:54:32;3.30;;;1.03;;
17864;SDS011;9058;52.018;4.202;2022-12-08T03:56:58;2.10;;;0.80;;
17864;SDS011;9058;52.018;4.202;2022-12-08T03:59:24;8.57;;;0.95;;
17864;SDS011;9058;52.018;4.202;2022-12-08T04:01:52;7.50;;;1.20;;
17864;SDS011;9058;52.018;4.202;2022-12-08T04:04:19;2.97;;;0.90;;
17864;SDS011;9058;52.018;4.202;2022-12-08T04:06:46;2.53;;;0.87;;
17864;SDS011;9058;52.018;4.202;2022-12-08T04:09:12;5.10;;;0.83;;
17864;SDS011;9058;52.018;4.202;2022-12-08T04:11:39;7.10;;;1.57;;
17864;SDS011;9058;52.018;4.202;2022-12-08T04:14:06;4.00;;;0.90;;
17864;SDS011;9058;52.018;4.202;2022-12-08T04:16:32;6.43;;;0.77;;
17864;SDS011;9058;52.018;4.202;2022-12-08T04:19:00;4.73;;;1.40;;
17864;SDS011;9058;52.018;4.202;2022-12-08T04:21:26;8.03;;;1.00;;
17864;SDS011;9058;52.018;4.202;2022-12-08T04:23:53;6.43;;;1.30;;
17864;SDS011;9058;52.018;4.202;2022-12-08T04:26:19;2.17;;;0.77;;
17864;SDS011;9058;52.018;4.202;2022-12-08T04:28:46;5.47;;;0.83;;
17864;SDS011;9058;52.018;4.202;2022-12-08T04:31:12;1.87;;;0.50;;
17864;SDS011;9058;52.018;4.202;2022-12-08T04:33:38;2.90;;;0.57;;
17864;SDS011;9058;52.018;4.202;2022-12-08T04:36:06;3.40;;;1.02;;
17864;SDS011;9058;52.018;4.202;2022-12-08T04:38:33;5.20;;;0.77;;
17864;SDS011;9058;52.018;4.202;2022-12-08T04:40:59;5.33;;;0.83;;
17864;SDS011;9058;52.018;4.202;2022-12-08T04:43:26;2.33;;;0.88;;
17864;SDS011;9058;52.018;4.202;2022-12-08T04:45:52;4.23;;;0.53;;
17864;SDS011;9058;52.018;4.202;2022-12-08T04:48:19;4.47;;;0.60;;
17864;SDS011;9058;52.018;4.202;2022-12-08T04:50:45;5.83;;;0.67;;
17864;SDS011;9058;52.018;4.202;2022-12-08T04:53:13;1.60;;;0.63;;
17864;SDS011;9058;52.018;4.202;2022-12-08T04:55:39;2.23;;;0.57;;
17864;SDS011;9058;52.018;4.202;2022-12-08T04:58:09;1.93;;;0.67;;
17864;SDS011;9058;52.018;4.202;2022-12-08T05:00:36;4.73;;;0.70;;
17864;SDS011;9058;52.018;4.202;2022-12-08T05:03:05;5.23;;;0.90;;
17864;SDS011;9058;52.018;4.202;2022-12-08T05:05:31;2.23;;;1.03;;
17864;SDS011;9058;52.018;4.202;2022-12-08T05:07:58;4.53;;;0.60;;
17864;SDS011;9058;52.018;4.202;2022-12-08T05:10:26;3.87;;;0.80;;
17864;SDS011;9058;52.018;4.202;2022-12-08T05:12:53;3.80;;;0.70;;
17864;SDS011;9058;52.018;4.202;2022-12-08T05:15:20;3.30;;;0.70;;
17864;SDS011;9058;52.018;4.202;2022-12-08T05:17:46;5.80;;;0.73;;
17864;SDS011;9058;52.018;4.202;2022-12-08T05:20:12;1.33;;;0.50;;
17864;SDS011;9058;52.018;4.202;2022-12-08T05:22:39;4.20;;;0.80;;
17864;SDS011;9058;52.018;4.202;2022-12-08T05:25:05;6.97;;;1.53;;
17864;SDS011;9058;52.018;4.202;2022-12-08T05:27:33;5.97;;;0.70;;
17864;SDS011;9058;52.018;4.202;2022-12-08T05:29:59;2.23;;;0.63;;
17864;SDS011;9058;52.018;4.202;2022-12-08T05:32:26;3.90;;;0.87;;
17864;SDS011;9058;52.018;4.202;2022-12-08T05:34:52;2.40;;;0.97;;
17864;SDS011;9058;52.018;4.202;2022-12-08T05:37:18;3.87;;;0.80;;
17864;SDS011;9058;52.018;4.202;2022-12-08T05:39:45;2.00;;;0.67;;
17864;SDS011;9058;52.018;4.202;2022-12-08T05:42:11;2.93;;;1.10;;
17864;SDS011;9058;52.018;4.202;2022-12-08T05:44:39;3.13;;;0.70;;
17864;SDS011;9058;52.018;4.202;2022-12-08T05:47:05;2.50;;;0.73;;
17864;SDS011;9058;52.018;4.202;2022-12-08T05:49:32;1.40;;;0.60;;
17864;SDS011;9058;52.018;4.202;2022-12-08T05:51:59;2.97;;;0.80;;
17864;SDS011;9058;52.018;4.202;2022-12-08T05:54:26;4.00;;;0.67;;
17864;SDS011;9058;52.018;4.202;2022-12-08T05:56:53;1.80;;;0.63;;
17864;SDS011;9058;52.018;4.202;2022-12-08T05:59:20;5.30;;;0.80;;
17864;SDS011;9058;52.018;4.202;2022-12-08T06:01:48;1.13;;;0.60;;
17864;SDS011;9058;52.018;4.202;2022-12-08T06:04:14;4.73;;;0.63;;
17864;SDS011;9058;52.018;4.202;2022-12-08T06:06:40;3.00;;;0.60;;
17864;SDS011;9058;52.018;4.202;2022-12-08T06:09:07;2.97;;;0.50;;
17864;SDS011;9058;52.018;4.202;2022-12-08T06:11:34;1.17;;;0.53;;
17864;SDS011;9058;52.018;4.202;2022-12-08T06:14:00;0.40;;;0.40;;
17864;SDS011;9058;52.018;4.202;2022-12-08T06:16:27;1.13;;;0.30;;
17864;SDS011;9058;52.018;4.202;2022-12-08T06:18:55;2.00;;;0.50;;
17864;SDS011;9058;52.018;4.202;2022-12-08T06:21:22;2.13;;;0.30;;
17864;SDS011;9058;52.018;4.202;2022-12-08T06:23:49;0.80;;;0.47;;
17864;SDS011;9058;52.018;4.202;2022-12-08T06:26:17;1.97;;;0.47;;
17864;SDS011;9058;52.018;4.202;2022-12-08T06:28:43;1.43;;;0.50;;
17864;SDS011;9058;52.018;4.202;2022-12-08T06:31:14;2.43;;;0.73;;
17864;SDS011;9058;52.018;4.202;2022-12-08T06:33:40;0.67;;;0.40;;
17864;SDS011;9058;52.018;4.202;2022-12-08T06:36:08;1.07;;;0.43;;
17864;SDS011;9058;52.018;4.202;2022-12-08T06:38:35;1.20;;;0.60;;
17864;SDS011;9058;52.018;4.202;2022-12-08T06:41:01;0.57;;;0.50;;
17864;SDS011;9058;52.018;4.202;2022-12-08T06:43:30;2.77;;;0.50;;
17864;SDS011;9058;52.018;4.202;2022-12-08T06:45:57;5.43;;;0.50;;
17864;SDS011;9058;52.018;4.202;2022-12-08T06:48:23;1.47;;;0.33;;
17864;SDS011;9058;52.018;4.202;2022-12-08T06:50:50;1.33;;;1.00;;
17864;SDS011;9058;52.018;4.202;2022-12-08T06:53:18;2.97;;;0.70;;
17864;SDS011;9058;52.018;4.202;2022-12-08T06:55:45;2.00;;;0.60;;
17864;SDS011;9058;52.018;4.202;2022-12-08T06:58:12;4.23;;;0.70;;
17864;SDS011;9058;52.018;4.202;2022-12-08T07:00:40;4.00;;;0.60;;
17864;SDS011;9058;52.018;4.202;2022-12-08T07:03:07;3.70;;;0.50;;
17864;SDS011;9058;52.018;4.202;2022-12-08T07:05:36;5.13;;;0.60;;
17864;SDS011;9058;52.018;4.202;2022-12-08T07:08:02;2.20;;;0.70;;
17864;SDS011;9058;52.018;4.202;2022-12-08T07:10:32;6.77;;;0.50;;
17864;SDS011;9058;52.018;4.202;2022-12-08T07:12:59;6.67;;;1.47;;
17864;SDS011;9058;52.018;4.202;2022-12-08T07:15:26;3.47;;;1.07;;
17864;SDS011;9058;52.018;4.202;2022-12-08T07:17:53;1.53;;;0.67;;
17864;SDS011;9058;52.018;4.202;2022-12-08T07:20:20;2.33;;;0.60;;
17864;SDS011;9058;52.018;4.202;2022-12-08T07:22:47;3.27;;;0.57;;
17864;SDS011;9058;52.018;4.202;2022-12-08T07:25:16;5.17;;;1.43;;
17864;SDS011;9058;52.018;4.202;2022-12-08T07:27:44;3.20;;;0.93;;
17864;SDS011;9058;52.018;4.202;2022-12-08T07:30:11;2.00;;;0.90;;
17864;SDS011;9058;52.018;4.202;2022-12-08T07:32:37;3.67;;;0.67;;
17864;SDS011;9058;52.018;4.202;2022-12-08T07:35:05;1.43;;;0.70;;
17864;SDS011;9058;52.018;4.202;2022-12-08T07:37:32;1.90;;;0.60;;
17864;SDS011;9058;52.018;4.202;2022-12-08T07:39:58;3.63;;;1.03;;
17864;SDS011;9058;52.018;4.202;2022-12-08T07:42:25;3.78;;;0.75;;
17864;SDS011;9058;52.018;4.202;2022-12-08T07:44:54;2.92;;;0.85;;
17864;SDS011;9058;52.018;4.202;2022-12-08T07:47:20;0.90;;;0.60;;
17864;SDS011;9058;52.018;4.202;2022-12-08T07:49:46;2.63;;;0.50;;
17864;SDS011;9058;52.018;4.202;2022-12-08T07:52:13;1.87;;;0.80;;
17864;SDS011;9058;52.018;4.202;2022-12-08T07:54:39;2.20;;;0.80;;
17864;SDS011;9058;52.018;4.202;2022-12-08T07:57:05;1.52;;;0.70;;
17864;SDS011;9058;52.018;4.202;2022-12-08T07:59:33;4.83;;;0.77;;
17864;SDS011;9058;52.018;4.202;2022-12-08T08:02:04;5.93;;;0.65;;
17864;SDS011;9058;52.018;4.202;2022-12-08T08:04:31;4.40;;;1.20;;
17864;SDS011;9058;52.018;4.202;2022-12-08T08:06:57;2.73;;;0.90;;
17864;SDS011;9058;52.018;4.202;2022-12-08T08:09:26;4.20;;;1.30;;
17864;SDS011;9058;52.018;4.202;2022-12-08T08:11:52;4.90;;;1.30;;
17864;SDS011;9058;52.018;4.202;2022-12-08T08:14:20;3.33;;;1.10;;
17864;SDS011;9058;52.018;4.202;2022-12-08T08:16:46;3.03;;;1.50;;
17864;SDS011;9058;52.018;4.202;2022-12-08T08:19:14;3.93;;;1.40;;
17864;SDS011;9058;52.018;4.202;2022-12-08T08:21:40;2.42;;;1.23;;
17864;SDS011;9058;52.018;4.202;2022-12-08T08:24:07;3.00;;;0.53;;
17864;SDS011;9058;52.018;4.202;2022-12-08T08:26:33;4.93;;;0.87;;
17864;SDS011;9058;52.018;4.202;2022-12-08T08:29:00;3.60;;;0.70;;
17864;SDS011;9058;52.018;4.202;2022-12-08T08:31:27;3.37;;;1.10;;
17864;SDS011;9058;52.018;4.202;2022-12-08T08:33:54;2.53;;;0.50;;
17864;SDS011;9058;52.018;4.202;2022-12-08T08:36:22;2.40;;;0.90;;
17864;SDS011;9058;52.018;4.202;2022-12-08T08:38:48;5.37;;;0.70;;
17864;SDS011;9058;52.018;4.202;2022-12-08T08:41:16;2.43;;;0.80;;
17864;SDS011;9058;52.018;4.202;2022-12-08T08:43:42;2.20;;;0.60;;
17864;SDS011;9058;52.018;4.202;2022-12-08T08:46:09;2.07;;;0.40;;
17864;SDS011;9058;52.018;4.202;2022-12-08T08:48:35;0.77;;;0.57;;
17864;SDS011;9058;52.018;4.202;2022-12-08T08:51:07;2.53;;;0.43;;
17864;SDS011;9058;52.018;4.202;2022-12-08T08:53:36;1.13;;;0.40;;
17864;SDS011;9058;52.018;4.202;2022-12-08T08:56:06;4.50;;;0.50;;
17864;SDS011;9058;52.018;4.202;2022-12-08T08:58:33;1.17;;;0.40;;
17864;SDS011;9058;52.018;4.202;2022-12-08T09:00:59;0.63;;;0.30;;
17864;SDS011;9058;52.018;4.202;2022-12-08T09:03:25;1.90;;;0.50;;
17864;SDS011;9058;52.018;4.202;2022-12-08T09:05:52;1.50;;;0.40;;
17864;SDS011;9058;52.018;4.202;2022-12-08T09:08:19;0.77;;;0.50;;
17864;SDS011;9058;52.018;4.202;2022-12-08T09:10:47;0.30;;;0.30;;
17864;SDS011;9058;52.018;4.202;2022-12-08T09:13:13;1.50;;;0.50;;
17864;SDS011;9058;52.018;4.202;2022-12-08T09:15:40;1.30;;;0.60;;
17864;SDS011;9058;52.018;4.202;2022-12-08T09:18:06;1.20;;;0.50;;
17864;SDS011;9058;52.018;4.202;2022-12-08T09:20:33;0.43;;;0.30;;
17864;SDS011;9058;52.018;4.202;2022-12-08T09:22:59;0.90;;;0.90;;
17864;SDS011;9058;52.018;4.202;2022-12-08T09:25:27;3.03;;;0.57;;
17864;SDS011;9058;52.018;4.202;2022-12-08T09:27:55;1.43;;;0.77;;
17864;SDS011;9058;52.018;4.202;2022-12-08T09:30:21;1.30;;;1.00;;
17864;SDS011;9058;52.018;4.202;2022-12-08T09:32:47;2.63;;;0.80;;
17864;SDS011;9058;52.018;4.202;2022-12-08T09:35:14;1.10;;;0.67;;
17864;SDS011;9058;52.018;4.202;2022-12-08T09:37:40;1.50;;;0.90;;
17864;SDS011;9058;52.018;4.202;2022-12-08T09:40:09;0.77;;;0.70;;
17864;SDS011;9058;52.018;4.202;2022-12-08T09:42:38;1.23;;;0.63;;
17864;SDS011;9058;52.018;4.202;2022-12-08T09:45:09;0.80;;;0.80;;
17864;SDS011;9058;52.018;4.202;2022-12-08T09:47:38;1.63;;;0.80;;
17864;SDS011;9058;52.018;4.202;2022-12-08T09:50:09;3.90;;;0.70;;
17864;SDS011;9058;52.018;4.202;2022-12-08T09:52:37;3.23;;;0.70;;
17864;SDS011;9058;52.018;4.202;2022-12-08T09:55:08;4.70;;;1.77;;
17864;SDS011;9058;52.018;4.202;2022-12-08T09:57:37;2.20;;;1.13;;
17864;SDS011;9058;52.018;4.202;2022-12-08T10:00:04;3.93;;;0.93;;
17864;SDS011;9058;52.018;4.202;2022-12-08T10:02:35;2.27;;;0.90;;
17864;SDS011;9058;52.018;4.202;2022-12-08T10:05:01;3.20;;;1.03;;
17864;SDS011;9058;52.018;4.202;2022-12-08T10:07:31;1.00;;;0.70;;
17864;SDS011;9058;52.018;4.202;2022-12-08T10:10:02;3.50;;;0.97;;
17864;SDS011;9058;52.018;4.202;2022-12-08T10:12:32;2.73;;;0.80;;
17864;SDS011;9058;52.018;4.202;2022-12-08T10:15:02;7.13;;;1.20;;
17864;SDS011;9058;52.018;4.202;2022-12-08T10:17:36;1.03;;;0.90;;
17864;SDS011;9058;52.018;4.202;2022-12-08T10:20:06;3.23;;;1.30;;
17864;SDS011;9058;52.018;4.202;2022-12-08T10:22:35;2.07;;;1.17;;
17864;SDS011;9058;52.018;4.202;2022-12-08T10:25:04;3.53;;;1.23;;
17864;SDS011;9058;52.018;4.202;2022-12-08T10:27:32;2.97;;;0.60;;
17864;SDS011;9058;52.018;4.202;2022-12-08T10:29:59;2.10;;;0.80;;
17864;SDS011;9058;52.018;4.202;2022-12-08T10:32:28;1.57;;;0.90;;
17864;SDS011;9058;52.018;4.202;2022-12-08T10:35:00;2.80;;;1.03;;
17864;SDS011;9058;52.018;4.202;2022-12-08T10:37:27;2.40;;;1.20;;
17864;SDS011;9058;52.018;4.202;2022-12-08T10:39:57;1.73;;;1.23;;
17864;SDS011;9058;52.018;4.202;2022-12-08T10:42:25;4.17;;;1.50;;
17864;SDS011;9058;52.018;4.202;2022-12-08T10:44:57;2.63;;;1.40;;
17864;SDS011;9058;52.018;4.202;2022-12-08T10:47:24;2.47;;;1.50;;
17864;SDS011;9058;52.018;4.202;2022-12-08T10:50:07;1.73;;;0.90;;
17864;SDS011;9058;52.018;4.202;2022-12-08T10:52:37;1.30;;;1.20;;
17864;SDS011;9058;52.018;4.202;2022-12-08T10:55:11;3.13;;;1.40;;
17864;SDS011;9058;52.018;4.202;2022-12-08T10:57:38;3.33;;;1.57;;
17864;SDS011;9058;52.018;4.202;2022-12-08T11:00:05;2.37;;;1.77;;
17864;SDS011;9058;52.018;4.202;2022-12-08T11:02:31;3.10;;;1.47;;
17864;SDS011;9058;52.018;4.202;2022-12-08T11:04:58;4.83;;;2.10;;
17864;SDS011;9058;52.018;4.202;2022-12-08T11:07:26;4.93;;;3.33;;
17864;SDS011;9058;52.018;4.202;2022-12-08T11:09:53;6.13;;;2.73;;
17864;SDS011;9058;52.018;4.202;2022-12-08T11:12:22;3.67;;;2.37;;
17864;SDS011;9058;52.018;4.202;2022-12-08T11:14:53;5.23;;;3.03;;
17864;SDS011;9058;52.018;4.202;2022-12-08T11:17:23;3.53;;;2.57;;
17864;SDS011;9058;52.018;4.202;2022-12-08T11:19:54;4.23;;;2.50;;
17864;SDS011;9058;52.018;4.202;2022-12-08T11:22:22;3.87;;;2.40;;
17864;SDS011;9058;52.018;4.202;2022-12-08T11:24:57;3.20;;;2.73;;
17864;SDS011;9058;52.018;4.202;2022-12-08T11:27:24;4.17;;;2.80;;
17864;SDS011;9058;52.018;4.202;2022-12-08T11:29:50;5.23;;;3.23;;
17864;SDS011;9058;52.018;4.202;2022-12-08T11:32:17;3.53;;;2.23;;
17864;SDS011;9058;52.018;4.202;2022-12-08T11:34:44;2.77;;;1.47;;
17864;SDS011;9058;52.018;4.202;2022-12-08T11:37:12;6.93;;;2.37;;
17864;SDS011;9058;52.018;4.202;2022-12-08T11:39:42;2.20;;;2.00;;
17864;SDS011;9058;52.018;4.202;2022-12-08T11:42:11;3.60;;;3.30;;
17864;SDS011;9058;52.018;4.202;2022-12-08T11:44:39;3.17;;;2.27;;
17864;SDS011;9058;52.018;4.202;2022-12-08T11:47:09;4.33;;;2.80;;
17864;SDS011;9058;52.018;4.202;2022-12-08T11:49:38;7.43;;;2.40;;
17864;SDS011;9058;52.018;4.202;2022-12-08T11:52:06;4.93;;;2.23;;
17864;SDS011;9058;52.018;4.202;2022-12-08T11:54:39;2.47;;;1.87;;
17864;SDS011;9058;52.018;4.202;2022-12-08T11:57:09;2.60;;;1.47;;
17864;SDS011;9058;52.018;4.202;2022-12-08T11:59:41;1.93;;;1.40;;
17864;SDS011;9058;52.018;4.202;2022-12-08T12:02:11;2.47;;;1.70;;
17864;SDS011;9058;52.018;4.202;2022-12-08T12:04:38;3.20;;;2.60;;
17864;SDS011;9058;52.018;4.202;2022-12-08T12:07:18;3.57;;;2.20;;
17864;SDS011;9058;52.018;4.202;2022-12-08T12:09:55;3.17;;;2.20;;
17864;SDS011;9058;52.018;4.202;2022-12-08T12:12:27;1.90;;;1.70;;
17864;SDS011;9058;52.018;4.202;2022-12-08T12:15:06;4.33;;;2.13;;
17864;SDS011;9058;52.018;4.202;2022-12-08T12:17:40;4.07;;;2.43;;
17864;SDS011;9058;52.018;4.202;2022-12-08T12:20:10;5.93;;;2.70;;
17864;SDS011;9058;52.018;4.202;2022-12-08T12:22:39;4.27;;;3.27;;
17864;SDS011;9058;52.018;4.202;2022-12-08T12:25:14;3.87;;;3.40;;
17864;SDS011;9058;52.018;4.202;2022-12-08T12:27:41;3.80;;;3.07;;
17864;SDS011;9058;52.018;4.202;2022-12-08T12:30:18;3.73;;;2.63;;
17864;SDS011;9058;52.018;4.202;2022-12-08T12:32:46;4.60;;;2.70;;
17864;SDS011;9058;52.018;4.202;2022-12-08T12:35:14;3.10;;;2.23;;
17864;SDS011;9058;52.018;4.202;2022-12-08T12:37:41;3.37;;;2.63;;
17864;SDS011;9058;52.018;4.202;2022-12-08T12:40:11;2.37;;;2.27;;
17864;SDS011;9058;52.018;4.202;2022-12-08T12:42:41;3.37;;;1.70;;
17864;SDS011;9058;52.018;4.202;2022-12-08T12:45:11;3.20;;;1.50;;
17864;SDS011;9058;52.018;4.202;2022-12-08T12:47:49;5.87;;;1.20;;
17864;SDS011;9058;52.018;4.202;2022-12-08T12:52:57;6.20;;;1.37;;
17864;SDS011;9058;52.018;4.202;2022-12-08T12:55:25;3.17;;;1.10;;
17864;SDS011;9058;52.018;4.202;2022-12-08T12:57:55;3.87;;;1.53;;
17864;SDS011;9058;52.018;4.202;2022-12-08T13:00:22;1.53;;;0.90;;
17864;SDS011;9058;52.018;4.202;2022-12-08T13:02:51;1.20;;;0.60;;
17864;SDS011;9058;52.018;4.202;2022-12-08T13:05:18;2.50;;;1.00;;
17864;SDS011;9058;52.018;4.202;2022-12-08T13:07:48;2.20;;;0.70;;
17864;SDS011;9058;52.018;4.202;2022-12-08T13:10:17;3.33;;;0.93;;
17864;SDS011;9058;52.018;4.202;2022-12-08T13:12:44;2.63;;;0.77;;
17864;SDS011;9058;52.018;4.202;2022-12-08T13:15:15;1.53;;;0.90;;
17864;SDS011;9058;52.018;4.202;2022-12-08T13:17:43;5.43;;;0.90;;
17864;SDS011;9058;52.018;4.202;2022-12-08T13:20:15;2.70;;;1.50;;
17864;SDS011;9058;52.018;4.202;2022-12-08T13:22:48;2.53;;;1.20;;
17864;SDS011;9058;52.018;4.202;2022-12-08T13:28:01;2.33;;;1.73;;
17864;SDS011;9058;52.018;4.202;2022-12-08T13:30:41;2.87;;;2.00;;
17864;SDS011;9058;52.018;4.202;2022-12-08T13:33:09;1.43;;;1.30;;
17864;SDS011;9058;52.018;4.202;2022-12-08T13:35:39;3.93;;;1.23;;
17864;SDS011;9058;52.018;4.202;2022-12-08T13:38:07;1.63;;;1.10;;
17864;SDS011;9058;52.018;4.202;2022-12-08T13:40:34;1.97;;;1.00;;
17864;SDS011;9058;52.018;4.202;2022-12-08T13:43:04;1.90;;;0.97;;
17864;SDS011;9058;52.018;4.202;2022-12-08T13:45:31;2.37;;;1.03;;
17864;SDS011;9058;52.018;4.202;2022-12-08T13:48:02;2.43;;;1.20;;
17864;SDS011;9058;52.018;4.202;2022-12-08T13:50:29;2.37;;;1.10;;
17864;SDS011;9058;52.018;4.202;2022-12-08T13:53:00;2.67;;;1.37;;
17864;SDS011;9058;52.018;4.202;2022-12-08T13:55:28;1.93;;;1.10;;
17864;SDS011;9058;52.018;4.202;2022-12-08T13:57:58;4.90;;;1.20;;
17864;SDS011;9058;52.018;4.202;2022-12-08T14:00:24;2.00;;;1.40;;
17864;SDS011;9058;52.018;4.202;2022-12-08T14:02:54;3.83;;;1.87;;
17864;SDS011;9058;52.018;4.202;2022-12-08T14:05:21;3.50;;;1.73;;
17864;SDS011;9058;52.018;4.202;2022-12-08T14:07:48;6.17;;;2.27;;
17864;SDS011;9058;52.018;4.202;2022-12-08T14:10:18;2.63;;;2.00;;
17864;SDS011;9058;52.018;4.202;2022-12-08T14:12:46;4.37;;;0.77;;
17864;SDS011;9058;52.018;4.202;2022-12-08T14:15:13;3.93;;;0.70;;
17864;SDS011;9058;52.018;4.202;2022-12-08T14:17:40;3.33;;;0.90;;
17864;SDS011;9058;52.018;4.202;2022-12-08T14:20:17;3.77;;;0.90;;
17864;SDS011;9058;52.018;4.202;2022-12-08T14:22:44;4.50;;;0.67;;
17864;SDS011;9058;52.018;4.202;2022-12-08T14:25:12;0.53;;;0.40;;
17864;SDS011;9058;52.018;4.202;2022-12-08T14:27:40;5.93;;;0.37;;
17864;SDS011;9058;52.018;4.202;2022-12-08T14:30:12;1.43;;;0.40;;
17864;SDS011;9058;52.018;4.202;2022-12-08T14:32:41;3.40;;;0.30;;
17864;SDS011;9058;52.018;4.202;2022-12-08T14:35:17;2.43;;;0.57;;
17864;SDS011;9058;52.018;4.202;2022-12-08T14:37:46;3.63;;;0.67;;
17864;SDS011;9058;52.018;4.202;2022-12-08T14:42:46;4.03;;;0.60;;
17864;SDS011;9058;52.018;4.202;2022-12-08T14:45:14;5.47;;;1.20;;
17864;SDS011;9058;52.018;4.202;2022-12-08T14:47:41;6.90;;;0.80;;
17864;SDS011;9058;52.018;4.202;2022-12-08T14:52:49;3.30;;;0.90;;
17864;SDS011;9058;52.018;4.202;2022-12-08T14:55:15;2.40;;;0.67;;
17864;SDS011;9058;52.018;4.202;2022-12-08T14:57:42;2.60;;;0.60;;
17864;SDS011;9058;52.018;4.202;2022-12-08T15:00:17;2.77;;;0.67;;
17864;SDS011;9058;52.018;4.202;2022-12-08T15:02:44;5.03;;;0.80;;
17864;SDS011;9058;52.018;4.202;2022-12-08T15:05:13;3.20;;;0.67;;
17864;SDS011;9058;52.018;4.202;2022-12-08T15:07:44;0.93;;;0.70;;
17864;SDS011;9058;52.018;4.202;2022-12-08T15:10:19;2.00;;;0.70;;
17864;SDS011;9058;52.018;4.202;2022-12-08T15:12:59;1.30;;;0.90;;
17864;SDS011;9058;52.018;4.202;2022-12-08T15:15:27;3.00;;;1.03;;
17864;SDS011;9058;52.018;4.202;2022-12-08T15:17:59;4.10;;;0.97;;